sensor_id;sensor_type;location;lat;lon;timestamp;pressure;altitude;pressure_sealevel;temperature;humidity
53960;BME280;39866;48.638;-2.020;2023-03-01T00:01:11;102656.31;;;7.83;56.91
53960;BME280;39866;48.638;-2.020;2023-03-01T00:03:37;102659.06;;;7.88;57.16
53960;BME280;39866;48.638;-2.020;2023-03-01T00:06:04;102667.91;;;7.91;56.47
53960;BME280;39866;48.638;-2.020;2023-03-01T00:08:29;102664.22;;;7.79;56.38
53960;BME280;39866;48.638;-2.020;2023-03-01T00:11:02;102674.88;;;7.83;56.29
53960;BME280;39866;48.638;-2.020;2023-03-01T00:13:27;102664.16;;;7.74;56.35
53960;BME280;39866;48.638;-2.020;2023-03-01T00:15:52;102671.47;;;7.90;56.46
53960;BME280;39866;48.638;-2.020;2023-03-01T00:18:18;102667.75;;;7.79;56.30
53960;BME280;39866;48.638;-2.020;2023-03-01T00:20:50;102662.41;;;7.73;56.40
53960;BME280;39866;48.638;-2.020;2023-03-01T00:23:16;102665.09;;;7.76;56.36
53960;BME280;39866;48.638;-2.020;2023-03-01T00:25:42;102671.00;;;7.58;56.20
53960;BME280;39866;48.638;-2.020;2023-03-01T00:28:08;102672.81;;;7.61;56.19
53960;BME280;39866;48.638;-2.020;2023-03-01T00:30:33;102681.84;;;7.72;56.25
53960;BME280;39866;48.638;-2.020;2023-03-01T00:32:58;102680.13;;;7.79;56.11
53960;BME280;39866;48.638;-2.020;2023-03-01T00:35:24;102665.94;;;7.74;55.35
53960;BME280;39866;48.638;-2.020;2023-03-01T00:37:49;102665.94;;;7.74;55.51
53960;BME280;39866;48.638;-2.020;2023-03-01T00:40:24;102675.72;;;7.78;55.23
53960;BME280;39866;48.638;-2.020;2023-03-01T00:42:50;102677.47;;;7.77;54.99
53960;BME280;39866;48.638;-2.020;2023-03-01T00:45:15;102663.38;;;7.80;54.70
53960;BME280;39866;48.638;-2.020;2023-03-01T00:47:41;102673.38;;;8.01;55.03
53960;BME280;39866;48.638;-2.020;2023-03-01T00:50:07;102670.81;;;8.10;54.83
53960;BME280;39866;48.638;-2.020;2023-03-01T00:52:32;102668.03;;;7.98;54.38
53960;BME280;39866;48.638;-2.020;2023-03-01T00:54:57;102668.09;;;8.04;54.74
53960;BME280;39866;48.638;-2.020;2023-03-01T00:57:23;102667.28;;;8.09;54.51
53960;BME280;39866;48.638;-2.020;2023-03-01T00:59:49;102670.88;;;8.13;54.79
53960;BME280;39866;48.638;-2.020;2023-03-01T01:02:14;102671.75;;;8.15;54.68
53960;BME280;39866;48.638;-2.020;2023-03-01T01:04:40;102672.38;;;7.94;55.18
53960;BME280;39866;48.638;-2.020;2023-03-01T01:07:05;102675.19;;;8.06;54.95
53960;BME280;39866;48.638;-2.020;2023-03-01T01:09:30;102677.97;;;8.15;54.91
53960;BME280;39866;48.638;-2.020;2023-03-01T01:11:56;102670.09;;;8.22;54.72
53960;BME280;39866;48.638;-2.020;2023-03-01T01:14:21;102673.53;;;8.13;54.28
53960;BME280;39866;48.638;-2.020;2023-03-01T01:16:47;102670.72;;;8.02;53.76
53960;BME280;39866;48.638;-2.020;2023-03-01T01:19:13;102681.38;;;8.07;54.32
53960;BME280;39866;48.638;-2.020;2023-03-01T01:21:39;102673.16;;;7.87;54.18
53960;BME280;39866;48.638;-2.020;2023-03-01T01:24:05;102671.50;;;7.93;54.32
53960;BME280;39866;48.638;-2.020;2023-03-01T01:26:32;102682.16;;;7.98;54.09
53960;BME280;39866;48.638;-2.020;2023-03-01T01:28:59;102690.06;;;7.95;54.00
53960;BME280;39866;48.638;-2.020;2023-03-01T01:31:25;102680.28;;;7.89;53.92
53960;BME280;39866;48.638;-2.020;2023-03-01T01:33:54;102683.84;;;7.91;54.10
53960;BME280;39866;48.638;-2.020;2023-03-01T01:36:20;102684.88;;;8.01;54.34
53960;BME280;39866;48.638;-2.020;2023-03-01T01:38:46;102682.28;;;8.07;54.25
53960;BME280;39866;48.638;-2.020;2023-03-01T01:41:12;102677.84;;;8.06;53.87
53960;BME280;39866;48.638;-2.020;2023-03-01T01:43:46;102670.78;;;8.07;53.92
53960;BME280;39866;48.638;-2.020;2023-03-01T01:48:49;102670.47;;;7.82;53.28
53960;BME280;39866;48.638;-2.020;2023-03-01T01:51:20;102671.47;;;7.90;53.76
53960;BME280;39866;48.638;-2.020;2023-03-01T01:53:53;102658.84;;;7.73;53.68
53960;BME280;39866;48.638;-2.020;2023-03-01T01:56:21;102673.78;;;7.66;53.64
53960;BME280;39866;48.638;-2.020;2023-03-01T01:58:49;102673.13;;;7.82;54.22
53960;BME280;39866;48.638;-2.020;2023-03-01T02:01:15;102670.41;;;7.78;53.96
53960;BME280;39866;48.638;-2.020;2023-03-01T02:03:43;102658.75;;;7.66;53.49
53960;BME280;39866;48.638;-2.020;2023-03-01T02:08:36;102665.06;;;7.75;53.64
53960;BME280;39866;48.638;-2.020;2023-03-01T02:11:03;102669.59;;;7.83;54.11
53960;BME280;39866;48.638;-2.020;2023-03-01T02:13:32;102668.53;;;7.69;53.83
53960;BME280;39866;48.638;-2.020;2023-03-01T02:15:58;102655.25;;;7.69;53.23
53960;BME280;39866;48.638;-2.020;2023-03-01T02:18:24;102660.47;;;7.63;53.25
53960;BME280;39866;48.638;-2.020;2023-03-01T02:21:11;102653.44;;;7.65;53.80
53960;BME280;39866;48.638;-2.020;2023-03-01T02:23:40;102657.81;;;7.61;54.28
53960;BME280;39866;48.638;-2.020;2023-03-01T02:28:55;102652.34;;;7.51;53.59
53960;BME280;39866;48.638;-2.020;2023-03-01T02:31:21;102653.28;;;7.53;54.45
53960;BME280;39866;48.638;-2.020;2023-03-01T02:34:06;102651.56;;;7.56;54.12
53960;BME280;39866;48.638;-2.020;2023-03-01T02:36:36;102661.16;;;7.50;54.41
53960;BME280;39866;48.638;-2.020;2023-03-01T02:39:04;102654.38;;;7.68;54.07
53960;BME280;39866;48.638;-2.020;2023-03-01T02:41:35;102629.41;;;7.51;53.75
53960;BME280;39866;48.638;-2.020;2023-03-01T02:44:01;102651.75;;;7.70;53.46
53960;BME280;39866;48.638;-2.020;2023-03-01T02:46:27;102649.88;;;7.63;53.98
53960;BME280;39866;48.638;-2.020;2023-03-01T02:48:54;102651.69;;;7.67;54.48
53960;BME280;39866;48.638;-2.020;2023-03-01T02:51:43;102651.78;;;7.72;54.16
53960;BME280;39866;48.638;-2.020;2023-03-01T02:56:39;102636.69;;;7.69;53.95
53960;BME280;39866;48.638;-2.020;2023-03-01T02:59:06;102644.78;;;7.78;53.88
53960;BME280;39866;48.638;-2.020;2023-03-01T03:01:31;102634.06;;;7.69;54.00
53960;BME280;39866;48.638;-2.020;2023-03-01T03:04:04;102628.63;;;7.60;53.33
53960;BME280;39866;48.638;-2.020;2023-03-01T03:06:30;102631.97;;;7.47;53.62
53960;BME280;39866;48.638;-2.020;2023-03-01T03:08:55;102631.97;;;7.47;53.90
53960;BME280;39866;48.638;-2.020;2023-03-01T03:11:20;102625.00;;;7.52;53.93
53960;BME280;39866;48.638;-2.020;2023-03-01T03:13:46;102632.22;;;7.63;53.94
53960;BME280;39866;48.638;-2.020;2023-03-01T03:16:13;102626.81;;;7.56;53.74
53960;BME280;39866;48.638;-2.020;2023-03-01T03:18:39;102628.53;;;7.54;53.71
53960;BME280;39866;48.638;-2.020;2023-03-01T03:21:08;102632.19;;;7.62;53.84
53960;BME280;39866;48.638;-2.020;2023-03-01T03:23:35;102627.72;;;7.58;53.59
53960;BME280;39866;48.638;-2.020;2023-03-01T03:26:01;102631.59;;;7.20;53.97
53960;BME280;39866;48.638;-2.020;2023-03-01T03:28:32;102638.19;;;7.50;53.68
53960;BME280;39866;48.638;-2.020;2023-03-01T03:30:58;102630.41;;;7.62;53.58
53960;BME280;39866;48.638;-2.020;2023-03-01T03:33:28;102632.25;;;7.66;54.20
53960;BME280;39866;48.638;-2.020;2023-03-01T03:35:54;102629.59;;;7.66;53.75
53960;BME280;39866;48.638;-2.020;2023-03-01T03:38:20;102629.63;;;7.68;53.56
53960;BME280;39866;48.638;-2.020;2023-03-01T03:41:07;102626.09;;;7.69;53.61
53960;BME280;39866;48.638;-2.020;2023-03-01T03:43:35;102625.09;;;7.61;53.50
53960;BME280;39866;48.638;-2.020;2023-03-01T03:46:01;102610.03;;;7.55;53.31
53960;BME280;39866;48.638;-2.020;2023-03-01T03:48:32;102618.03;;;7.60;53.67
53960;BME280;39866;48.638;-2.020;2023-03-01T03:50:58;102620.78;;;7.67;53.60
53960;BME280;39866;48.638;-2.020;2023-03-01T03:53:25;102610.84;;;7.53;53.02
53960;BME280;39866;48.638;-2.020;2023-03-01T03:55:51;102611.84;;;7.61;53.26
53960;BME280;39866;48.638;-2.020;2023-03-01T03:58:19;102606.59;;;7.67;53.47
53960;BME280;39866;48.638;-2.020;2023-03-01T04:00:46;102603.00;;;7.60;52.87
53960;BME280;39866;48.638;-2.020;2023-03-01T04:03:14;102608.38;;;7.63;52.97
53960;BME280;39866;48.638;-2.020;2023-03-01T04:05:40;102608.38;;;7.66;53.36
53960;BME280;39866;48.638;-2.020;2023-03-01T04:08:07;102604.78;;;7.60;53.18
53960;BME280;39866;48.638;-2.020;2023-03-01T04:10:38;102608.38;;;7.63;53.11
53960;BME280;39866;48.638;-2.020;2023-03-01T04:13:10;102607.38;;;7.57;52.91
53960;BME280;39866;48.638;-2.020;2023-03-01T04:15:37;102604.56;;;7.46;53.07
53960;BME280;39866;48.638;-2.020;2023-03-01T04:18:03;102602.31;;;7.11;52.87
53960;BME280;39866;48.638;-2.020;2023-03-01T04:20:30;102592.59;;;7.12;53.46
53960;BME280;39866;48.638;-2.020;2023-03-01T04:23:12;102594.13;;;6.98;53.75
53960;BME280;39866;48.638;-2.020;2023-03-01T04:25:56;102597.03;;;7.13;53.70
53960;BME280;39866;48.638;-2.020;2023-03-01T04:28:29;102595.19;;;7.09;54.04
53960;BME280;39866;48.638;-2.020;2023-03-01T04:30:56;102594.50;;;7.20;53.64
53960;BME280;39866;48.638;-2.020;2023-03-01T04:33:23;102591.84;;;7.22;54.32
53960;BME280;39866;48.638;-2.020;2023-03-01T04:35:49;102586.34;;;7.07;53.65
53960;BME280;39866;48.638;-2.020;2023-03-01T04:38:16;102579.91;;;6.91;53.58
53960;BME280;39866;48.638;-2.020;2023-03-01T04:40:41;102581.88;;;7.03;53.74
53960;BME280;39866;48.638;-2.020;2023-03-01T04:43:09;102585.66;;;7.20;53.86
53960;BME280;39866;48.638;-2.020;2023-03-01T04:45:35;102587.47;;;7.24;53.84
53960;BME280;39866;48.638;-2.020;2023-03-01T04:48:01;102583.00;;;7.18;54.17
53960;BME280;39866;48.638;-2.020;2023-03-01T04:50:27;102582.19;;;7.26;53.50
53960;BME280;39866;48.638;-2.020;2023-03-01T04:52:52;102586.59;;;7.24;53.72
53960;BME280;39866;48.638;-2.020;2023-03-01T04:55:18;102583.69;;;7.07;52.95
53960;BME280;39866;48.638;-2.020;2023-03-01T04:57:43;102574.78;;;7.02;53.27
53960;BME280;39866;48.638;-2.020;2023-03-01T05:00:12;102575.94;;;7.19;53.37
53960;BME280;39866;48.638;-2.020;2023-03-01T05:05:13;102576.13;;;7.34;53.33
53960;BME280;39866;48.638;-2.020;2023-03-01T05:07:39;102574.34;;;7.32;53.03
53960;BME280;39866;48.638;-2.020;2023-03-01T05:10:04;102569.94;;;7.32;52.84
53960;BME280;39866;48.638;-2.020;2023-03-01T05:12:29;102578.69;;;7.27;52.59
53960;BME280;39866;48.638;-2.020;2023-03-01T05:14:55;102568.19;;;7.34;52.86
53960;BME280;39866;48.638;-2.020;2023-03-01T05:17:20;102570.00;;;7.38;53.16
53960;BME280;39866;48.638;-2.020;2023-03-01T05:19:45;102571.75;;;7.35;52.68
53960;BME280;39866;48.638;-2.020;2023-03-01T05:22:11;102569.81;;;7.23;52.22
53960;BME280;39866;48.638;-2.020;2023-03-01T05:24:36;102571.59;;;7.24;51.86
53960;BME280;39866;48.638;-2.020;2023-03-01T05:27:04;102567.22;;;7.28;51.90
53960;BME280;39866;48.638;-2.020;2023-03-01T05:29:30;102566.13;;;7.13;52.17
53960;BME280;39866;48.638;-2.020;2023-03-01T05:31:58;102565.22;;;7.11;52.41
53960;BME280;39866;48.638;-2.020;2023-03-01T05:34:25;102569.06;;;7.33;52.12
53960;BME280;39866;48.638;-2.020;2023-03-01T05:36:52;102581.25;;;7.22;51.96
53960;BME280;39866;48.638;-2.020;2023-03-01T05:39:19;102571.69;;;7.32;52.04
53960;BME280;39866;48.638;-2.020;2023-03-01T05:41:46;102568.66;;;7.06;51.90
53960;BME280;39866;48.638;-2.020;2023-03-01T05:44:11;102572.53;;;7.29;51.80
53960;BME280;39866;48.638;-2.020;2023-03-01T05:46:37;102569.72;;;7.17;51.38
53960;BME280;39866;48.638;-2.020;2023-03-01T05:49:02;102566.22;;;7.19;51.60
53960;BME280;39866;48.638;-2.020;2023-03-01T05:51:29;102564.53;;;7.26;52.16
53960;BME280;39866;48.638;-2.020;2023-03-01T05:53:54;102568.22;;;7.36;52.03
53960;BME280;39866;48.638;-2.020;2023-03-01T05:56:20;102566.41;;;7.33;51.63
53960;BME280;39866;48.638;-2.020;2023-03-01T05:58:48;102569.53;;;7.03;51.10
53960;BME280;39866;48.638;-2.020;2023-03-01T06:01:14;102562.53;;;7.10;51.29
53960;BME280;39866;48.638;-2.020;2023-03-01T06:03:39;102566.25;;;7.21;51.18
53960;BME280;39866;48.638;-2.020;2023-03-01T06:06:05;102562.00;;;7.34;51.57
53960;BME280;39866;48.638;-2.020;2023-03-01T06:08:30;102565.47;;;7.28;51.69
53960;BME280;39866;48.638;-2.020;2023-03-01T06:10:55;102559.22;;;7.23;51.67
53960;BME280;39866;48.638;-2.020;2023-03-01T06:13:22;102560.22;;;7.33;51.78
53960;BME280;39866;48.638;-2.020;2023-03-01T06:15:48;102558.50;;;7.38;52.17
53960;BME280;39866;48.638;-2.020;2023-03-01T06:18:13;102562.88;;;7.34;52.04
53960;BME280;39866;48.638;-2.020;2023-03-01T06:20:39;102566.41;;;7.33;52.29
53960;BME280;39866;48.638;-2.020;2023-03-01T06:23:04;102559.41;;;7.37;52.21
53960;BME280;39866;48.638;-2.020;2023-03-01T06:25:30;102568.41;;;7.50;52.02
53960;BME280;39866;48.638;-2.020;2023-03-01T06:27:55;102556.00;;;7.47;52.38
53960;BME280;39866;48.638;-2.020;2023-03-01T06:30:22;102566.66;;;7.52;52.08
53960;BME280;39866;48.638;-2.020;2023-03-01T06:32:49;102569.19;;;7.42;51.54
53960;BME280;39866;48.638;-2.020;2023-03-01T06:35:15;102563.13;;;7.51;51.59
53960;BME280;39866;48.638;-2.020;2023-03-01T06:37:43;102567.53;;;7.51;51.94
53960;BME280;39866;48.638;-2.020;2023-03-01T06:40:10;102566.66;;;7.52;51.70
53960;BME280;39866;48.638;-2.020;2023-03-01T06:42:40;102570.28;;;7.58;51.85
53960;BME280;39866;48.638;-2.020;2023-03-01T06:45:07;102561.28;;;7.45;52.10
53960;BME280;39866;48.638;-2.020;2023-03-01T06:47:33;102570.09;;;7.46;51.38
53960;BME280;39866;48.638;-2.020;2023-03-01T06:49:59;102571.81;;;7.42;51.74
53960;BME280;39866;48.638;-2.020;2023-03-01T06:52:25;102560.28;;;7.36;51.80
53960;BME280;39866;48.638;-2.020;2023-03-01T06:54:50;102560.28;;;7.37;51.75
53960;BME280;39866;48.638;-2.020;2023-03-01T06:57:16;102559.38;;;7.35;51.15
53960;BME280;39866;48.638;-2.020;2023-03-01T06:59:41;102557.63;;;7.37;51.48
53960;BME280;39866;48.638;-2.020;2023-03-01T07:02:11;102561.09;;;7.32;51.90
53960;BME280;39866;48.638;-2.020;2023-03-01T07:04:37;102558.69;;;7.49;51.50
53960;BME280;39866;48.638;-2.020;2023-03-01T07:07:03;102559.41;;;7.38;51.42
53960;BME280;39866;48.638;-2.020;2023-03-01T07:09:28;102560.16;;;7.27;51.35
53960;BME280;39866;48.638;-2.020;2023-03-01T07:11:53;102560.22;;;7.34;51.49
53960;BME280;39866;48.638;-2.020;2023-03-01T07:14:19;102558.41;;;7.30;50.74
53960;BME280;39866;48.638;-2.020;2023-03-01T07:16:45;102560.06;;;7.22;51.93
53960;BME280;39866;48.638;-2.020;2023-03-01T07:19:10;102556.41;;;7.12;51.92
53960;BME280;39866;48.638;-2.020;2023-03-01T07:21:36;102565.53;;;7.34;51.87
53960;BME280;39866;48.638;-2.020;2023-03-01T07:24:05;102559.22;;;7.26;52.18
53960;BME280;39866;48.638;-2.020;2023-03-01T07:26:31;102566.41;;;7.32;52.28
53960;BME280;39866;48.638;-2.020;2023-03-01T07:28:59;102565.53;;;7.34;51.93
53960;BME280;39866;48.638;-2.020;2023-03-01T07:31:24;102567.53;;;7.51;51.99
53960;BME280;39866;48.638;-2.020;2023-03-01T07:33:53;102564.09;;;7.58;52.32
53960;BME280;39866;48.638;-2.020;2023-03-01T07:36:18;102573.84;;;7.62;52.10
53960;BME280;39866;48.638;-2.020;2023-03-01T07:38:43;102580.16;;;7.70;51.92
53960;BME280;39866;48.638;-2.020;2023-03-01T07:41:08;102572.97;;;7.63;52.07
53960;BME280;39866;48.638;-2.020;2023-03-01T07:43:34;102570.47;;;7.75;52.30
53960;BME280;39866;48.638;-2.020;2023-03-01T07:46:00;102564.75;;;7.41;52.20
53960;BME280;39866;48.638;-2.020;2023-03-01T07:48:26;102562.94;;;7.37;51.64
53960;BME280;39866;48.638;-2.020;2023-03-01T07:50:52;102567.56;;;7.54;51.77
53960;BME280;39866;48.638;-2.020;2023-03-01T07:53:17;102566.78;;;7.61;51.63
53960;BME280;39866;48.638;-2.020;2023-03-01T07:55:43;102551.50;;;7.41;51.71
53960;BME280;39866;48.638;-2.020;2023-03-01T07:58:08;102562.16;;;7.46;51.72
53960;BME280;39866;48.638;-2.020;2023-03-01T08:00:34;102564.94;;;7.55;51.81
53960;BME280;39866;48.638;-2.020;2023-03-01T08:03:00;102570.16;;;7.51;52.14
53960;BME280;39866;48.638;-2.020;2023-03-01T08:05:26;102571.03;;;7.48;51.88
53960;BME280;39866;48.638;-2.020;2023-03-01T08:07:52;102563.03;;;7.43;51.81
53960;BME280;39866;48.638;-2.020;2023-03-01T08:10:18;102566.69;;;7.53;51.78
53960;BME280;39866;48.638;-2.020;2023-03-01T08:12:43;102561.44;;;7.58;51.48
53960;BME280;39866;48.638;-2.020;2023-03-01T08:15:09;102564.13;;;7.59;52.02
53960;BME280;39866;48.638;-2.020;2023-03-01T08:17:35;102564.03;;;7.53;52.06
53960;BME280;39866;48.638;-2.020;2023-03-01T08:20:00;102558.47;;;7.33;52.17
53960;BME280;39866;48.638;-2.020;2023-03-01T08:22:25;102566.72;;;7.56;52.16
53960;BME280;39866;48.638;-2.020;2023-03-01T08:24:51;102565.97;;;7.66;51.94
53960;BME280;39866;48.638;-2.020;2023-03-01T08:27:16;102566.88;;;7.70;51.71
53960;BME280;39866;48.638;-2.020;2023-03-01T08:29:42;102562.56;;;7.77;51.74
53960;BME280;39866;48.638;-2.020;2023-03-01T08:32:08;102558.94;;;7.68;52.02
53960;BME280;39866;48.638;-2.020;2023-03-01T08:34:33;102565.31;;;7.84;52.10
53960;BME280;39866;48.638;-2.020;2023-03-01T08:37:00;102565.25;;;7.81;51.50
53960;BME280;39866;48.638;-2.020;2023-03-01T08:39:26;102563.34;;;7.71;51.68
53960;BME280;39866;48.638;-2.020;2023-03-01T08:41:51;102554.19;;;7.43;51.31
53960;BME280;39866;48.638;-2.020;2023-03-01T08:44:17;102557.75;;;7.47;51.98
53960;BME280;39866;48.638;-2.020;2023-03-01T08:46:43;102557.75;;;7.47;52.25
53960;BME280;39866;48.638;-2.020;2023-03-01T08:49:17;102566.97;;;7.76;51.88
53960;BME280;39866;48.638;-2.020;2023-03-01T08:51:43;102554.56;;;7.72;51.46
53960;BME280;39866;48.638;-2.020;2023-03-01T08:54:20;102564.28;;;7.75;51.41
53960;BME280;39866;48.638;-2.020;2023-03-01T08:56:46;102562.56;;;7.78;51.87
53960;BME280;39866;48.638;-2.020;2023-03-01T08:59:12;102558.94;;;7.70;51.15
53960;BME280;39866;48.638;-2.020;2023-03-01T09:01:38;102556.00;;;7.47;51.26
53960;BME280;39866;48.638;-2.020;2023-03-01T09:04:05;102557.59;;;7.34;51.34
53960;BME280;39866;48.638;-2.020;2023-03-01T09:06:33;102561.44;;;7.58;51.75
53960;BME280;39866;48.638;-2.020;2023-03-01T09:08:59;102562.88;;;7.33;51.37
53960;BME280;39866;48.638;-2.020;2023-03-01T09:11:25;102556.06;;;7.52;51.39
53960;BME280;39866;48.638;-2.020;2023-03-01T09:13:50;102549.78;;;7.45;51.31
53960;BME280;39866;48.638;-2.020;2023-03-01T09:16:17;102556.13;;;7.56;51.67
53960;BME280;39866;48.638;-2.020;2023-03-01T09:18:43;102551.81;;;7.64;51.61
53960;BME280;39866;48.638;-2.020;2023-03-01T09:21:12;102551.78;;;7.63;52.20
53960;BME280;39866;48.638;-2.020;2023-03-01T09:23:40;102557.31;;;7.81;51.76
53960;BME280;39866;48.638;-2.020;2023-03-01T09:26:11;102555.59;;;7.86;51.78
53960;BME280;39866;48.638;-2.020;2023-03-01T09:28:37;102546.44;;;7.60;52.18
53960;BME280;39866;48.638;-2.020;2023-03-01T09:31:03;102531.28;;;7.50;52.56
53960;BME280;39866;48.638;-2.020;2023-03-01T09:33:31;102541.06;;;7.52;52.97
53960;BME280;39866;48.638;-2.020;2023-03-01T09:36:04;102549.06;;;7.57;53.28
53960;BME280;39866;48.638;-2.020;2023-03-01T09:38:30;102533.19;;;7.61;53.19
53960;BME280;39866;48.638;-2.020;2023-03-01T09:40:56;102530.56;;;7.61;53.32
53960;BME280;39866;48.638;-2.020;2023-03-01T09:43:30;102533.06;;;7.51;53.06
53960;BME280;39866;48.638;-2.020;2023-03-01T09:46:04;102532.38;;;7.67;53.35
53960;BME280;39866;48.638;-2.020;2023-03-01T09:48:33;102531.38;;;7.56;52.94
53960;BME280;39866;48.638;-2.020;2023-03-01T09:51:07;102526.22;;;7.68;53.81
53960;BME280;39866;48.638;-2.020;2023-03-01T09:53:34;102536.94;;;7.79;53.30
53960;BME280;39866;48.638;-2.020;2023-03-01T09:56:33;102534.22;;;7.74;53.37
53960;BME280;39866;48.638;-2.020;2023-03-01T10:09:37;102530.69;;;7.72;53.73
53960;BME280;39866;48.638;-2.020;2023-03-01T10:12:09;102515.91;;;7.92;53.31
53960;BME280;39866;48.638;-2.020;2023-03-01T10:14:39;102519.44;;;7.94;53.43
53960;BME280;39866;48.638;-2.020;2023-03-01T10:19:55;102512.88;;;7.62;53.65
53960;BME280;39866;48.638;-2.020;2023-03-01T10:22:30;102513.28;;;7.97;53.63
53960;BME280;39866;48.638;-2.020;2023-03-01T10:25:02;102525.44;;;7.78;53.27
53960;BME280;39866;48.638;-2.020;2023-03-01T10:27:42;102523.63;;;7.73;53.62
53960;BME280;39866;48.638;-2.020;2023-03-01T10:30:35;102517.66;;;7.93;53.56
53960;BME280;39866;48.638;-2.020;2023-03-01T10:33:12;102514.34;;;8.13;53.07
53960;BME280;39866;48.638;-2.020;2023-03-01T10:35:38;102519.44;;;7.94;53.05
53960;BME280;39866;48.638;-2.020;2023-03-01T10:38:11;102520.59;;;8.23;53.42
53960;BME280;39866;48.638;-2.020;2023-03-01T10:40:57;102526.75;;;8.20;53.34
53960;BME280;39866;48.638;-2.020;2023-03-01T10:43:24;102522.50;;;7.52;52.86
53960;BME280;39866;48.638;-2.020;2023-03-01T10:45:51;102520.09;;;7.75;52.63
53960;BME280;39866;48.638;-2.020;2023-03-01T10:48:19;102521.16;;;7.88;53.16
53960;BME280;39866;48.638;-2.020;2023-03-01T10:50:51;102526.31;;;7.77;52.91
53960;BME280;39866;48.638;-2.020;2023-03-01T10:53:44;102523.72;;;7.80;53.40
53960;BME280;39866;48.638;-2.020;2023-03-01T10:56:13;102513.25;;;7.94;53.81
53960;BME280;39866;48.638;-2.020;2023-03-01T10:59:01;102516.66;;;7.82;53.59
53960;BME280;39866;48.638;-2.020;2023-03-01T11:01:28;102506.78;;;7.67;53.34
53960;BME280;39866;48.638;-2.020;2023-03-01T11:06:34;102511.50;;;7.98;52.91
53960;BME280;39866;48.638;-2.020;2023-03-01T11:09:21;102496.81;;;8.35;52.54
53960;BME280;39866;48.638;-2.020;2023-03-01T11:11:57;102508.03;;;8.03;53.49
53960;BME280;39866;48.638;-2.020;2023-03-01T11:14:49;102490.34;;;8.04;54.56
53960;BME280;39866;48.638;-2.020;2023-03-01T11:17:25;102480.69;;;8.09;54.38
53960;BME280;39866;48.638;-2.020;2023-03-01T11:20:02;102483.97;;;7.86;54.51
53960;BME280;39866;48.638;-2.020;2023-03-01T11:22:30;102465.69;;;8.12;54.77
53960;BME280;39866;48.638;-2.020;2023-03-01T11:24:57;102471.84;;;8.10;55.22
53960;BME280;39866;48.638;-2.020;2023-03-01T11:35:32;102454.22;;;8.16;56.32
53960;BME280;39866;48.638;-2.020;2023-03-01T11:40:33;102454.50;;;8.49;54.46
53960;BME280;39866;48.638;-2.020;2023-03-01T11:43:20;102447.44;;;8.51;53.52
53960;BME280;39866;48.638;-2.020;2023-03-01T11:59:12;102428.84;;;8.51;55.18
53960;BME280;39866;48.638;-2.020;2023-03-01T12:12:51;102414.47;;;8.21;54.30
53960;BME280;39866;48.638;-2.020;2023-03-01T12:15:34;102406.00;;;8.76;53.50
53960;BME280;39866;48.638;-2.020;2023-03-01T12:33:00;102391.00;;;8.88;54.39
53960;BME280;39866;48.638;-2.020;2023-03-01T12:41:26;102392.78;;;8.86;55.00
53960;BME280;39866;48.638;-2.020;2023-03-01T12:44:12;102382.22;;;8.99;54.59
53960;BME280;39866;48.638;-2.020;2023-03-01T12:49:13;102375.00;;;8.76;54.44
53960;BME280;39866;48.638;-2.020;2023-03-01T12:51:40;102372.31;;;8.68;55.06
53960;BME280;39866;48.638;-2.020;2023-03-01T12:54:31;102362.69;;;8.93;55.27
53960;BME280;39866;48.638;-2.020;2023-03-01T12:57:06;102360.91;;;8.86;54.22
53960;BME280;39866;48.638;-2.020;2023-03-01T12:59:41;102352.94;;;8.97;54.09
53960;BME280;39866;48.638;-2.020;2023-03-01T13:02:30;102352.13;;;9.13;53.30
53960;BME280;39866;48.638;-2.020;2023-03-01T13:10:43;102324.72;;;9.50;52.20
53960;BME280;39866;48.638;-2.020;2023-03-01T13:13:19;102322.06;;;9.37;52.70
53960;BME280;39866;48.638;-2.020;2023-03-01T13:15:45;102327.41;;;9.73;52.48
53960;BME280;39866;48.638;-2.020;2023-03-01T13:30:56;102307.81;;;8.99;52.56
53960;BME280;39866;48.638;-2.020;2023-03-01T13:35:55;102296.34;;;9.23;53.18
53960;BME280;39866;48.638;-2.020;2023-03-01T13:38:37;102287.44;;;9.10;53.02
53960;BME280;39866;48.638;-2.020;2023-03-01T13:41:03;102294.50;;;8.86;53.30
53960;BME280;39866;48.638;-2.020;2023-03-01T13:43:35;102288.31;;;8.97;52.61
53960;BME280;39866;48.638;-2.020;2023-03-01T13:46:08;102295.47;;;9.28;52.62
53960;BME280;39866;48.638;-2.020;2023-03-01T13:48:36;102286.59;;;9.75;51.83
53960;BME280;39866;48.638;-2.020;2023-03-01T13:51:06;102285.72;;;9.50;52.16
53960;BME280;39866;48.638;-2.020;2023-03-01T13:53:45;102273.28;;;9.00;53.08
53960;BME280;39866;48.638;-2.020;2023-03-01T13:56:20;102279.53;;;9.31;52.48
53960;BME280;39866;48.638;-2.020;2023-03-01T13:58:53;102281.31;;;9.31;52.00
53960;BME280;39866;48.638;-2.020;2023-03-01T14:01:31;102265.34;;;9.75;51.14
53960;BME280;39866;48.638;-2.020;2023-03-01T14:03:57;102268.00;;;9.84;51.03
53960;BME280;39866;48.638;-2.020;2023-03-01T14:06:28;102279.50;;;9.96;51.28
53960;BME280;39866;48.638;-2.020;2023-03-01T14:19:31;102248.47;;;9.82;50.91
53960;BME280;39866;48.638;-2.020;2023-03-01T14:22:25;102240.50;;;9.82;50.42
53960;BME280;39866;48.638;-2.020;2023-03-01T14:25:03;102240.41;;;10.22;50.61
53960;BME280;39866;48.638;-2.020;2023-03-01T14:27:34;102241.28;;;10.38;50.35
53960;BME280;39866;48.638;-2.020;2023-03-01T14:30:09;102244.78;;;10.51;50.29
53960;BME280;39866;48.638;-2.020;2023-03-01T14:32:35;102232.28;;;10.66;50.27
53960;BME280;39866;48.638;-2.020;2023-03-01T14:35:00;102226.00;;;10.72;50.14
53960;BME280;39866;48.638;-2.020;2023-03-01T14:37:33;102225.25;;;10.53;49.69
53960;BME280;39866;48.638;-2.020;2023-03-01T14:40:00;102225.13;;;10.75;49.81
53960;BME280;39866;48.638;-2.020;2023-03-01T14:42:29;102211.75;;;10.79;49.18
53960;BME280;39866;48.638;-2.020;2023-03-01T14:44:56;102213.19;;;11.29;47.72
53960;BME280;39866;48.638;-2.020;2023-03-01T14:47:32;102204.16;;;11.43;47.80
53960;BME280;39866;48.638;-2.020;2023-03-01T14:50:09;102196.31;;;11.27;48.37
53960;BME280;39866;48.638;-2.020;2023-03-01T14:52:37;102195.97;;;11.62;47.73
53960;BME280;39866;48.638;-2.020;2023-03-01T14:55:07;102195.19;;;11.56;48.30
53960;BME280;39866;48.638;-2.020;2023-03-01T14:57:43;102195.09;;;11.65;47.35